AirNav   Textron
 
 291 users online  

32FD Star Aviation Heliport
Riverview, Florida, USA


FAA INFORMATION EFFECTIVE 20 JULY 2017

Location

FAA Identifier: 32FD
Lat/Long: 27-54-16.0000N / 082-23-00.0000W
27-54.266667N / 082-23.000000W
27.9044444 / -82.3833333
(estimated)
Elevation: 13 ft. / 4 m (estimated)
From city: 5 miles SE of RIVERVIEW, FL
Time zone: UTC -4 (UTC -5 during Standard Time)
Zip code: 33578

Heliport Operations

Heliport use: Private use. Permission required prior to landing
Activation date: 06/2006
Control tower: no
ARTCC: JACKSONVILLE CENTER
FSS: SAINT PETERSBURG FLIGHT SERVICE STATION
Attendance: 0800-1700
Wind indicator: yes
Segmented circle: no

Heliport Communications

WX AWOS-3 at TPF (4 nm W): 118.925 (813-251-6824)
WX AWOS-3 at VDF (7 nm N): 121.125 (813-630-0924)
WX ASOS at TPA (9 nm NW): PHONE 813-873-7228
WX AWOS-3 at PCM (13 nm NE): 120.025 (813-764-8259)
WX ASOS at SPG (15 nm SW): 118.875 (727-821-4334)
WX ASOS at PIE (16 nm W): PHONE 727-531-3456
WX AWOS-3PT at LAL (20 nm E): 118.025 (863-834-2030)

Nearby radio navigation aids

VOR radial/distance  VOR name  Freq  Var
PIEr096/16.0ST PETERSBURG VORTAC116.4005W
LALr255/20.2LAKELAND VORTAC116.0001E
SRQr023/31.3SARASOTA VOR/DME117.0005W

Heliport Services

Runway Information

Helipad H1

Dimensions: 50 x 50 ft. / 15 x 15 m
Surface: concrete
Traffic pattern: leftleft

Heliport Ownership and Management from official FAA records

Ownership: Privately-owned
Owner: STAR AVIATION
9625 WES KEARNEY WAY
RIVERVIEW, FL 33578
Phone (813) 421-8021
Manager: BING KEARNEY
9625 WES KEARNEY WAY
RIVERVIEW, FL 33578
Phone 813-379-3830
ADDITIONAL CONTACT ROSIE APPELBE MOORE - 813-335-8414

Heliport Operational Statistics

Aircraft based on the field: 2
Helicopters: 2
    

Additional Remarks

70 FT PLINE 300 FT N OF PAD RUNS E AND W. 50 FT PLINE W OF PAD RUNS N AND S.

Instrument Procedures

There are no published instrument procedures at 32FD.

Some nearby airports with instrument procedures:

KTPF - Peter O Knight Airport (4 nm W)
KVDF - Tampa Executive Airport (7 nm N)
KMCF - MacDill Air Force Base (8 nm SW)
KTPA - Tampa International Airport (9 nm NW)
KPCM - Plant City Airport (13 nm NE)
KSPG - Albert Whitted Airport (15 nm SW)
KPIE - St Pete-Clearwater International Airport (16 nm W)
KLAL - Lakeland Linder Regional Airport (20 nm E)
 
Loc | Ops | Rwys | IFR | FBO | Links
Com | Nav | Svcs | Stats | Notes


 
Area around 32FD (Star Aviation Heliport)
 
Road maps at: MapQuest Bing Google
 
Aerial photo
No photo
 
Sectional chart

 
Airport distance calculator
Flying to Star Aviation Heliport? Find the distance to fly.

From to 32FD

Sunrise and sunset
Times for 26-Jul-2017
 Local
(UTC-4)
 Zulu
(UTC)
Morning civil twilight06:2410:24
Sunrise06:5010:50
Sunset20:2200:22
Evening civil twilight20:4800:48

Current date and time
Zulu (UTC)  26-Jul-2017 08:04:21
Local (UTC-4)  26-Jul-2017 04:04:21
 
METAR
KTPF 
4nm W 
260755Z AUTO 00000KT 10SM SCT050 27/26 A3009 RMK AO2
KVDF 
7nm N 
260755Z AUTO 00000KT 4SM BR CLR 24/23 A3009 RMK AO2
KMCF 
8nm SW 
260758Z AUTO 09003KT 10SM CLR 25/25 A3008 RMK AO2 SLP189 T02500249 $
KTPA 
9nm NW 
260753Z 00000KT 10SM FEW050 28/23 A3009 RMK AO2 SLP188 T02780233
KPCM 
13nm NE 
260755Z AUTO 00000KT 10SM CLR 25/24 A3010 RMK AO2
KSPG 
16nm SW 
260753Z AUTO 00000KT 10SM CLR 29/24 A3007 RMK AO2 SLP180 T02890244
KPIE 
16nm W 
260753Z AUTO 00000KT 9SM SCT055 26/24 A3008 RMK AO2 SLP186 T02610244
KLAL 
20nm E 
260335Z AUTO 00000KT CLR 27/23 A3013 RMK AO2 PWINO
TAF
KMCF 
8nm SW 
260000Z 2600/2706 29006KT 9999 SCT030 QNH3003INS TEMPO 2607/2612 8000 BR BKN020 BECMG 2615/2616 28006KT 9999 SCT040 QNH3000INS TEMPO 2619/2623 28012G20KT 4800 -TSRA BKN030CB BECMG 2700/2701 23006KT 9999 BKN020 QNH2999INS TX34/2621Z TN25/2612Z
KTPA 
9nm NW 
260531Z 2606/2706 00000KT P6SM FEW250 FM261400 24004KT P6SM SCT030 SCT250 FM261900 26007KT P6SM SCT040 SCT250 FM262200 31008KT P6SM SCT050 SCT250 FM270200 31004KT P6SM FEW040 BKN250
KPIE 
16nm W 
260531Z 2606/2706 VRB03KT P6SM FEW250 FM261400 04004KT P6SM FEW030 SCT250 FM261700 34006KT P6SM SCT040 SCT250 FM262100 30008KT P6SM FEW045 SCT250 FM270200 32003KT P6SM FEW040 BKN250
KLAL 
20nm E 
260531Z 2606/2706 00000KT P6SM FEW250 FM261500 VRB03KT P6SM SCT030 SCT250 FM262000 21005KT P6SM VCTS BKN050CB FM270200 00000KT P6SM VCTS SCT045CB BKN250 AMD NOT SKED TIL 261100
NOTAMs
Click for the latest NOTAMs
NOTAMs are issued by the DoD/FAA and will open in a separate window not controlled by AirNav.

 

 
 

Would you like to see your business listed on this page?

 If your business provides an interesting product or service to pilots, flight crews, aircraft, or users of the Star Aviation Heliport, you should consider listing it here.  To start the listing process, click on the button below
 
Add a business
 

Other Pages about Star Aviation Heliport

Update a link
 
Copyright © AirNav, LLC. All rights reserved. Privacy Policy  Contact